createdAt,value
2018-12-20T00:02:01.331Z,101218.50
2018-12-20T00:04:30.306Z,101208.20
2018-12-20T00:06:59.401Z,101216.05
2018-12-20T00:09:28.437Z,101212.80
2018-12-20T00:11:57.627Z,101219.24
2018-12-20T00:14:30.118Z,101211.00
2018-12-20T00:17:03.905Z,101206.94
2018-12-20T00:19:33.081Z,101212.48
2018-12-20T00:22:02.003Z,101203.25
2018-12-20T00:24:31.022Z,101204.20
2018-12-20T00:27:00.121Z,101202.58
2018-12-20T00:29:29.107Z,101194.73
2018-12-20T00:31:58.213Z,101189.01
2018-12-20T00:34:27.176Z,101190.00
2018-12-20T00:36:56.160Z,101188.81
2018-12-20T00:39:25.315Z,101193.31
2018-12-20T00:41:55.447Z,101193.00
2018-12-20T00:44:24.834Z,101191.70
2018-12-20T00:46:53.775Z,101193.18
2018-12-20T00:49:23.168Z,101199.80
2018-12-20T00:51:52.431Z,101200.20
2018-12-20T00:54:22.212Z,101194.48
2018-12-20T00:56:51.395Z,101199.59
2018-12-20T00:59:20.401Z,101201.55
2018-12-20T01:01:49.473Z,101208.14
2018-12-20T01:04:18.726Z,101205.81
2018-12-20T01:06:47.930Z,101211.51
2018-12-20T01:09:17.299Z,101212.55
2018-12-20T01:11:46.677Z,101216.48
2018-12-20T01:14:15.944Z,101219.04
2018-12-20T01:16:45.116Z,101216.10
2018-12-20T01:19:14.218Z,101216.79
2018-12-20T01:21:43.433Z,101219.33
2018-12-20T01:24:13.110Z,101220.74
2018-12-20T01:26:42.656Z,101229.75
2018-12-20T01:29:12.666Z,101228.28
2018-12-20T01:31:41.799Z,101229.30
2018-12-20T01:34:10.810Z,101228.02
2018-12-20T01:36:39.873Z,101234.69
2018-12-20T01:39:09.309Z,101235.11
2018-12-20T01:41:38.296Z,101227.92
2018-12-20T01:44:07.355Z,101227.58
2018-12-20T01:46:36.575Z,101218.80
2018-12-20T01:49:06.815Z,101219.38
2018-12-20T01:51:36.359Z,101219.66
2018-12-20T01:54:05.421Z,101219.61
2018-12-20T01:56:34.487Z,101228.95
2018-12-20T01:59:03.443Z,101226.10
2018-12-20T02:01:32.842Z,101220.70
2018-12-20T02:04:02.135Z,101220.70
2018-12-20T02:06:31.394Z,101220.35
2018-12-20T02:09:00.361Z,101224.36
2018-12-20T02:11:29.348Z,101226.70
2018-12-20T02:13:58.505Z,101222.73
2018-12-20T02:16:27.578Z,101220.37
2018-12-20T02:18:56.630Z,101225.42
2018-12-20T02:21:25.606Z,101229.60
2018-12-20T02:23:54.691Z,101227.47
2018-12-20T02:26:24.430Z,101225.77
2018-12-20T02:28:54.211Z,101230.83
2018-12-20T02:31:23.470Z,101218.88
2018-12-20T02:33:52.569Z,101210.93
2018-12-20T02:36:21.923Z,101213.97
2018-12-20T02:38:51.146Z,101208.92
2018-12-20T02:41:20.324Z,101207.27
2018-12-20T02:43:50.436Z,101200.33
2018-12-20T02:46:19.625Z,101198.06
2018-12-20T02:48:48.971Z,101202.56
2018-12-20T02:51:18.238Z,101204.22
2018-12-20T02:53:47.299Z,101197.05
2018-12-20T02:56:16.298Z,101195.42
2018-12-20T02:58:45.202Z,101193.13
2018-12-20T03:01:14.282Z,101193.13
2018-12-20T03:03:43.160Z,101186.79
2018-12-20T03:06:12.083Z,101188.03
2018-12-20T03:08:41.107Z,101185.06
2018-12-20T03:11:10.267Z,101187.06
2018-12-20T03:13:39.491Z,101188.92
2018-12-20T03:16:08.760Z,101207.12
2018-12-20T03:18:38.194Z,101199.17
2018-12-20T03:21:07.434Z,101193.55
2018-12-20T03:23:37.051Z,101193.12
2018-12-20T03:26:06.200Z,101192.29
2018-12-20T03:28:35.105Z,101190.38
2018-12-20T03:31:04.501Z,101189.26
2018-12-20T03:33:33.705Z,101181.23
2018-12-20T03:36:02.794Z,101172.78
2018-12-20T03:38:31.945Z,101176.94
2018-12-20T03:41:01.086Z,101168.79
2018-12-20T03:43:30.710Z,101166.89
2018-12-20T03:46:00.131Z,101167.58
2018-12-20T03:48:30.997Z,101168.49
2018-12-20T03:51:00.218Z,101163.95
2018-12-20T03:53:29.064Z,101162.59
2018-12-20T03:55:58.590Z,101165.43
2018-12-20T03:58:27.786Z,101158.23
2018-12-20T04:00:56.739Z,101160.21
2018-12-20T04:03:25.723Z,101160.94
2018-12-20T04:05:54.749Z,101158.78
2018-12-20T04:08:24.174Z,101153.38
2018-12-20T04:10:53.368Z,101152.16
2018-12-20T04:13:22.637Z,101153.52
2018-12-20T04:15:51.738Z,101152.11
2018-12-20T04:18:20.986Z,101151.66
2018-12-20T04:20:49.946Z,101149.95
2018-12-20T04:23:18.946Z,101146.58
2018-12-20T04:25:48.043Z,101142.34
2018-12-20T04:28:16.988Z,101140.30
2018-12-20T04:30:46.400Z,101143.86
2018-12-20T04:33:15.856Z,101140.62
2018-12-20T04:35:44.872Z,101143.55
2018-12-20T04:38:16.629Z,101143.78
2018-12-20T04:40:45.813Z,101140.05
2018-12-20T04:43:14.818Z,101145.34
2018-12-20T04:45:46.770Z,101147.74
2018-12-20T04:48:15.529Z,101143.33
2018-12-20T04:50:45.561Z,101150.81
2018-12-20T04:53:15.077Z,101145.59
2018-12-20T04:55:43.970Z,101144.77
2018-12-20T04:58:13.014Z,101150.58
2018-12-20T05:00:42.205Z,101148.73
2018-12-20T05:03:11.393Z,101158.42
2018-12-20T05:05:40.739Z,101155.22
2018-12-20T05:08:09.837Z,101156.08
2018-12-20T05:10:38.855Z,101157.93
2018-12-20T05:13:07.911Z,101158.06
2018-12-20T05:15:41.044Z,101149.46
2018-12-20T05:18:09.975Z,101141.22
2018-12-20T05:20:38.859Z,101146.08
2018-12-20T05:23:08.549Z,101149.69
2018-12-20T05:25:38.131Z,101153.15
2018-12-20T05:28:07.400Z,101150.67
2018-12-20T05:30:36.456Z,101152.66
2018-12-20T05:33:05.918Z,101149.23
2018-12-20T05:35:34.909Z,101149.09
2018-12-20T05:38:04.584Z,101147.52
2018-12-20T05:40:33.629Z,101141.97
2018-12-20T05:43:02.758Z,101145.03
2018-12-20T05:45:32.006Z,101145.58
2018-12-20T05:48:01.097Z,101138.47
2018-12-20T05:50:30.206Z,101147.38
2018-12-20T05:52:59.243Z,101152.52
2018-12-20T05:55:28.191Z,101150.56
2018-12-20T05:57:57.635Z,101149.72
2018-12-20T06:00:26.866Z,101157.20
2018-12-20T06:02:56.074Z,101157.45
2018-12-20T06:05:25.038Z,101152.83
2018-12-20T06:07:54.159Z,101149.07
2018-12-20T06:10:23.178Z,101147.97
2018-12-20T06:12:52.590Z,101145.69
2018-12-20T06:15:21.621Z,101147.95
2018-12-20T06:17:50.488Z,101154.34
2018-12-20T06:20:19.714Z,101160.45
2018-12-20T06:22:48.854Z,101158.48
2018-12-20T06:25:17.757Z,101163.34
2018-12-20T06:27:46.817Z,101169.28
2018-12-20T06:30:15.802Z,101162.92
2018-12-20T06:32:44.744Z,101158.94
2018-12-20T06:35:13.696Z,101158.40
2018-12-20T06:37:42.875Z,101152.05
2018-12-20T06:40:12.005Z,101159.84
2018-12-20T06:42:41.253Z,101158.48
2018-12-20T06:45:10.299Z,101155.21
2018-12-20T06:47:39.241Z,101163.41
2018-12-20T06:50:08.638Z,101157.94
2018-12-20T06:52:37.689Z,101161.80
2018-12-20T06:55:06.832Z,101158.89
2018-12-20T06:57:35.759Z,101152.00
2018-12-20T07:00:06.255Z,101154.81
2018-12-20T07:02:35.435Z,101149.20
2018-12-20T07:05:05.719Z,101150.91
2018-12-20T07:07:34.846Z,101151.52
2018-12-20T07:10:04.035Z,101161.16
2018-12-20T07:12:32.919Z,101154.83
2018-12-20T07:15:03.942Z,101155.28
2018-12-20T07:17:32.882Z,101156.34
2018-12-20T07:20:01.847Z,101157.50
2018-12-20T07:22:30.738Z,101160.16
2018-12-20T07:24:59.689Z,101157.38
2018-12-20T07:27:28.538Z,101152.34
2018-12-20T07:29:57.545Z,101160.03
2018-12-20T07:32:26.453Z,101160.62
2018-12-20T07:34:55.451Z,101164.19
2018-12-20T07:37:25.086Z,101164.19
2018-12-20T07:39:54.006Z,101169.77
2018-12-20T07:42:23.110Z,101164.86
2018-12-20T07:44:52.087Z,101160.58
2018-12-20T07:47:21.114Z,101160.99
2018-12-20T07:49:50.030Z,101160.62
2018-12-20T07:52:18.955Z,101165.91
2018-12-20T07:54:48.344Z,101163.70
2018-12-20T07:57:17.279Z,101162.78
2018-12-20T07:59:46.324Z,101165.66
2018-12-20T08:02:15.267Z,101165.72
2018-12-20T08:04:44.205Z,101167.56
2018-12-20T08:07:13.233Z,101170.70
2018-12-20T08:09:42.240Z,101174.08
2018-12-20T08:12:11.257Z,101173.64
2018-12-20T08:14:40.813Z,101167.55
2018-12-20T08:17:09.976Z,101173.19
2018-12-20T08:19:38.894Z,101175.39
2018-12-20T08:22:07.962Z,101173.12
2018-12-20T08:24:36.864Z,101178.84
2018-12-20T08:27:05.743Z,101181.05
2018-12-20T08:29:34.667Z,101186.27
2018-12-20T08:32:03.676Z,101182.98
2018-12-20T08:34:32.686Z,101178.88
2018-12-20T08:37:01.579Z,101181.88
2018-12-20T08:39:30.602Z,101184.58
2018-12-20T08:41:59.486Z,101187.17
2018-12-20T08:44:28.480Z,101187.60
2018-12-20T08:46:58.727Z,101182.77
2018-12-20T08:49:27.641Z,101189.41
2018-12-20T08:51:56.624Z,101184.88
2018-12-20T08:54:25.627Z,101189.84
2018-12-20T08:56:54.535Z,101189.13
2018-12-20T08:59:23.455Z,101192.84
2018-12-20T09:01:52.417Z,101194.02
2018-12-20T09:04:21.474Z,101190.77
2018-12-20T09:06:50.355Z,101199.77
2018-12-20T09:09:19.870Z,101193.64
2018-12-20T09:11:48.809Z,101199.94
2018-12-20T09:14:17.715Z,101199.39
2018-12-20T09:16:46.613Z,101204.58
2018-12-20T09:19:15.544Z,101203.94
2018-12-20T09:21:44.924Z,101204.05
2018-12-20T09:24:13.836Z,101205.63
2018-12-20T09:26:42.680Z,101201.31
2018-12-20T09:29:11.644Z,101197.55
2018-12-20T09:31:40.662Z,101199.95
2018-12-20T09:34:10.120Z,101204.11
2018-12-20T09:36:39.206Z,101200.52
2018-12-20T09:39:09.862Z,101207.69
2018-12-20T09:41:38.851Z,101209.14
2018-12-20T09:44:07.789Z,101201.89
2018-12-20T09:46:36.739Z,101201.89
2018-12-20T09:49:05.745Z,101202.70
2018-12-20T09:51:34.668Z,101203.18
2018-12-20T09:54:03.668Z,101208.05
2018-12-20T09:56:32.696Z,101200.31
2018-12-20T09:59:01.991Z,101197.66
2018-12-20T10:01:31.016Z,101200.15
2018-12-20T10:03:59.895Z,101195.22
2018-12-20T10:06:29.151Z,101196.75
2018-12-20T10:08:58.026Z,101191.64
2018-12-20T10:11:27.114Z,101193.63
2018-12-20T10:13:56.005Z,101188.22
2018-12-20T10:16:24.910Z,101187.97
2018-12-20T10:18:53.829Z,101185.73
2018-12-20T10:21:23.138Z,101188.70
2018-12-20T10:23:52.419Z,101180.48
2018-12-20T10:26:21.388Z,101183.89
2018-12-20T10:28:50.474Z,101187.73
2018-12-20T10:31:19.529Z,101188.92
2018-12-20T10:33:49.737Z,101186.30
2018-12-20T10:36:19.674Z,101185.42
2018-12-20T10:38:48.969Z,101184.20
2018-12-20T10:41:17.885Z,101187.56
2018-12-20T10:43:47.058Z,101188.42
2018-12-20T10:46:16.008Z,101179.59
2018-12-20T10:48:44.940Z,101183.74
2018-12-20T10:51:13.872Z,101179.91
2018-12-20T10:53:42.780Z,101178.28
2018-12-20T10:56:11.657Z,101178.61
2018-12-20T10:58:40.977Z,101166.55
2018-12-20T11:01:15.563Z,101167.58
2018-12-20T11:03:46.138Z,101162.73
2018-12-20T11:06:21.246Z,101160.42
2018-12-20T11:08:55.818Z,101151.95
2018-12-20T11:11:27.259Z,101155.22
2018-12-20T11:13:56.308Z,101145.58
2018-12-20T11:16:25.139Z,101146.31
2018-12-20T11:18:54.071Z,101143.30
2018-12-20T11:21:24.079Z,101140.11
2018-12-20T11:23:54.218Z,101138.33
2018-12-20T11:26:23.691Z,101132.50
2018-12-20T11:28:53.602Z,101128.94
2018-12-20T11:31:22.596Z,101134.58
2018-12-20T11:33:51.595Z,101128.43
2018-12-20T11:36:20.760Z,101127.36
2018-12-20T11:38:50.556Z,101124.33
2018-12-20T11:41:19.733Z,101124.77
2018-12-20T11:43:48.831Z,101128.93
2018-12-20T11:46:17.919Z,101134.30
2018-12-20T11:48:48.347Z,101125.14
2018-12-20T11:51:17.620Z,101125.59
2018-12-20T11:53:47.165Z,101124.45
2018-12-20T11:56:16.407Z,101118.69
2018-12-20T11:58:45.353Z,101124.59
2018-12-20T12:01:15.208Z,101123.48
2018-12-20T12:03:44.337Z,101127.58
2018-12-20T12:06:13.267Z,101124.74
2018-12-20T12:08:42.304Z,101129.14
2018-12-20T12:11:11.187Z,101127.97
2018-12-20T12:13:40.215Z,101125.83
2018-12-20T12:16:09.266Z,101126.62
2018-12-20T12:18:38.161Z,101118.37
2018-12-20T12:21:07.465Z,101126.48
2018-12-20T12:23:36.361Z,101134.09
2018-12-20T12:26:05.542Z,101122.44
2018-12-20T12:28:34.738Z,101124.59
2018-12-20T12:31:03.900Z,101129.66
2018-12-20T12:33:32.771Z,101118.22
2018-12-20T12:36:01.725Z,101122.95
2018-12-20T12:38:30.706Z,101118.86
2018-12-20T12:40:59.660Z,101122.63
2018-12-20T12:43:28.630Z,101121.19
2018-12-20T12:45:57.638Z,101120.58
2018-12-20T12:48:26.767Z,101115.16
2018-12-20T12:50:55.756Z,101112.80
2018-12-20T12:53:24.687Z,101111.91
2018-12-20T12:55:53.672Z,101115.76
2018-12-20T12:58:22.854Z,101112.53
2018-12-20T13:00:51.827Z,101114.58
2018-12-20T13:03:20.818Z,101110.75
2018-12-20T13:05:50.002Z,101104.98
2018-12-20T13:08:19.184Z,101105.80
2018-12-20T13:10:48.179Z,101101.06
2018-12-20T13:13:17.408Z,101106.43
2018-12-20T13:15:46.433Z,101101.66
2018-12-20T13:18:15.368Z,101104.05
2018-12-20T13:20:45.394Z,101099.62
2018-12-20T13:23:14.372Z,101105.69
2018-12-20T13:25:43.399Z,101101.39
2018-12-20T13:28:12.457Z,101096.92
2018-12-20T13:30:41.541Z,101095.41
2018-12-20T13:33:10.391Z,101100.45
2018-12-20T13:35:39.367Z,101092.70
2018-12-20T13:38:08.314Z,101093.38
2018-12-20T13:40:37.344Z,101089.17
2018-12-20T13:43:06.416Z,101093.38
2018-12-20T13:45:36.064Z,101085.92
2018-12-20T13:48:05.033Z,101085.98
2018-12-20T13:50:33.971Z,101091.80
2018-12-20T13:53:03.066Z,101091.05
2018-12-20T13:55:32.382Z,101086.04
2018-12-20T13:58:01.310Z,101092.50
2018-12-20T14:00:30.261Z,101089.37
2018-12-20T14:02:59.211Z,101090.00
2018-12-20T14:05:28.554Z,101085.44
2018-12-20T14:07:59.008Z,101083.38
2018-12-20T14:10:28.118Z,101093.49
2018-12-20T14:12:57.305Z,101091.66
2018-12-20T14:15:26.201Z,101092.69
2018-12-20T14:17:55.318Z,101090.86
2018-12-20T14:20:24.336Z,101097.73
2018-12-20T14:22:53.274Z,101096.42
2018-12-20T14:25:22.179Z,101090.78
2018-12-20T14:27:51.164Z,101099.33
2018-12-20T14:30:20.120Z,101097.17
2018-12-20T14:32:49.030Z,101100.02
2018-12-20T14:35:17.958Z,101100.42
2018-12-20T14:37:46.869Z,101093.91
2018-12-20T14:40:15.849Z,101092.44
2018-12-20T14:42:45.111Z,101094.87
2018-12-20T14:45:14.493Z,101090.98
2018-12-20T14:47:43.438Z,101100.70
2018-12-20T14:50:12.371Z,101100.01
2018-12-20T14:52:41.312Z,101103.12
2018-12-20T14:55:10.299Z,101098.06
2018-12-20T14:57:39.132Z,101104.33
2018-12-20T15:00:10.965Z,101104.43
2018-12-20T15:02:39.831Z,101102.59
2018-12-20T15:05:08.868Z,101102.31
2018-12-20T15:07:37.808Z,101097.95
2018-12-20T15:10:09.217Z,101098.72
2018-12-20T15:12:38.404Z,101096.00
2018-12-20T15:15:09.364Z,101107.20
2018-12-20T15:17:38.308Z,101106.58
2018-12-20T15:20:09.250Z,101105.96
2018-12-20T15:22:38.167Z,101104.16
2018-12-20T15:25:07.299Z,101107.09
2018-12-20T15:27:36.761Z,101102.08
2018-12-20T15:30:07.771Z,101113.69
2018-12-20T15:32:36.982Z,101113.72
2018-12-20T15:35:06.153Z,101109.30
2018-12-20T15:37:35.174Z,101109.11
2018-12-20T15:40:06.240Z,101111.86
2018-12-20T15:42:35.198Z,101111.09
2018-12-20T15:45:05.552Z,101110.22
2018-12-20T15:47:35.362Z,101090.05
2018-12-20T15:50:05.910Z,101095.15
2018-12-20T15:52:34.966Z,101101.59
2018-12-20T15:55:05.159Z,101100.42
2018-12-20T15:57:34.119Z,101098.11
2018-12-20T16:00:03.358Z,101104.73
2018-12-20T16:02:32.281Z,101106.17
2018-12-20T16:05:01.166Z,101107.31
2018-12-20T16:07:30.221Z,101097.97
2018-12-20T16:09:59.368Z,101102.50
2018-12-20T16:12:28.319Z,101101.36
2018-12-20T16:14:57.221Z,101102.98
2018-12-20T16:17:26.199Z,101110.64
2018-12-20T16:19:55.214Z,101105.58
2018-12-20T16:22:24.119Z,101110.52
2018-12-20T16:24:53.442Z,101112.84
2018-12-20T16:27:22.727Z,101112.34
2018-12-20T16:29:51.596Z,101109.50
2018-12-20T16:32:20.616Z,101110.39
2018-12-20T16:34:49.450Z,101105.73
2018-12-20T16:37:18.372Z,101110.57
2018-12-20T16:39:47.741Z,101113.20
2018-12-20T16:42:16.735Z,101117.97
2018-12-20T16:44:45.664Z,101114.42
2018-12-20T16:47:14.635Z,101113.73
2018-12-20T16:49:43.631Z,101113.69
2018-12-20T16:52:13.179Z,101117.39
2018-12-20T16:54:42.208Z,101109.80
2018-12-20T16:57:11.424Z,101108.30
2018-12-20T16:59:40.311Z,101113.58
2018-12-20T17:02:09.375Z,101114.61
2018-12-20T17:04:38.266Z,101115.92
2018-12-20T17:07:07.317Z,101113.47
2018-12-20T17:09:36.427Z,101125.52
2018-12-20T17:12:05.657Z,101117.42
2018-12-20T17:14:34.610Z,101115.73
2018-12-20T17:17:03.576Z,101113.25
2018-12-20T17:19:32.494Z,101106.48
2018-12-20T17:22:02.233Z,101105.31
2018-12-20T17:24:31.223Z,101108.25
2018-12-20T17:27:00.242Z,101103.30
2018-12-20T17:29:29.183Z,101105.04
2018-12-20T17:31:58.139Z,101108.30
2018-12-20T17:34:27.144Z,101103.21
2018-12-20T17:36:55.974Z,101104.23
2018-12-20T17:39:24.929Z,101107.84
2018-12-20T17:41:54.112Z,101105.66
2018-12-20T17:44:23.108Z,101107.42
2018-12-20T17:46:52.139Z,101107.36
2018-12-20T17:49:21.739Z,101098.45
2018-12-20T17:51:50.605Z,101102.05
2018-12-20T17:54:19.523Z,101104.58
2018-12-20T17:56:48.515Z,101107.75
2018-12-20T17:59:17.642Z,101100.97
2018-12-20T18:01:46.571Z,101100.92
2018-12-20T18:04:15.514Z,101100.97
2018-12-20T18:06:44.386Z,101103.88
2018-12-20T18:09:13.316Z,101097.54
2018-12-20T18:11:42.223Z,101100.45
2018-12-20T18:14:11.169Z,101098.06
2018-12-20T18:16:40.082Z,101092.22
2018-12-20T18:19:09.030Z,101093.77
2018-12-20T18:21:37.900Z,101093.77
2018-12-20T18:24:07.028Z,101096.41
2018-12-20T18:26:35.925Z,101095.45
2018-12-20T18:29:04.975Z,101093.02
2018-12-20T18:31:33.895Z,101099.41
2018-12-20T18:34:02.909Z,101093.00
2018-12-20T18:36:32.464Z,101080.50
2018-12-20T18:39:01.588Z,101085.83
2018-12-20T18:41:30.533Z,101091.31
2018-12-20T18:43:59.476Z,101084.06
2018-12-20T18:46:29.239Z,101076.28
2018-12-20T18:48:58.366Z,101085.80
2018-12-20T18:51:27.524Z,101088.33
2018-12-20T18:53:56.501Z,101087.03
2018-12-20T18:56:25.514Z,101083.70
2018-12-20T18:58:54.584Z,101097.31
2018-12-20T19:01:23.567Z,101084.04
2018-12-20T19:03:52.500Z,101083.42
2018-12-20T19:06:23.188Z,101089.46
2018-12-20T19:08:52.402Z,101085.95
2018-12-20T19:11:22.795Z,101079.67
2018-12-20T19:13:51.955Z,101086.86
2018-12-20T19:16:20.842Z,101076.38
2018-12-20T19:18:49.839Z,101073.73
2018-12-20T19:21:18.719Z,101088.29
2018-12-20T19:23:47.585Z,101085.80
2018-12-20T19:26:16.690Z,101089.94
2018-12-20T19:28:45.927Z,101085.76
2018-12-20T19:31:15.352Z,101087.84
2018-12-20T19:33:46.105Z,101080.73
2018-12-20T19:36:18.136Z,101077.47
2018-12-20T19:38:47.671Z,101080.19
2018-12-20T19:41:17.594Z,101084.04
2018-12-20T19:43:46.847Z,101080.77
2018-12-20T19:46:20.807Z,101076.59
2018-12-20T19:48:50.074Z,101075.13
2018-12-20T19:51:19.346Z,101080.05
2018-12-20T19:53:48.198Z,101078.40
2018-12-20T19:56:18.896Z,101082.45
2018-12-20T19:58:48.494Z,101079.16
2018-12-20T20:01:18.228Z,101083.56
2018-12-20T20:03:47.154Z,101081.91
2018-12-20T20:06:16.643Z,101082.39
2018-12-20T20:08:46.406Z,101080.70
2018-12-20T20:11:15.598Z,101073.04
2018-12-20T20:13:44.679Z,101074.73
2018-12-20T20:16:13.846Z,101078.47
2018-12-20T20:18:43.447Z,101078.39
2018-12-20T20:21:12.458Z,101068.27
2018-12-20T20:23:41.823Z,101067.84
2018-12-20T20:26:10.858Z,101072.34
2018-12-20T20:28:39.839Z,101068.58
2018-12-20T20:31:09.721Z,101063.75
2018-12-20T20:33:38.670Z,101065.59
2018-12-20T20:36:07.547Z,101065.59
2018-12-20T20:38:36.556Z,101071.02
2018-12-20T20:41:05.923Z,101069.59
2018-12-20T20:43:34.820Z,101062.27
2018-12-20T20:46:03.904Z,101055.84
2018-12-20T20:48:33.057Z,101055.36
2018-12-20T20:51:02.145Z,101054.42
2018-12-20T20:53:31.058Z,101045.84
2018-12-20T20:56:00.146Z,101052.43
2018-12-20T20:58:29.152Z,101057.59
2018-12-20T21:00:58.663Z,101056.38
2018-12-20T21:03:28.189Z,101057.45
2018-12-20T21:05:57.330Z,101055.03
2018-12-20T21:08:26.283Z,101060.56
2018-12-20T21:10:55.197Z,101055.42
2018-12-20T21:13:24.426Z,101052.72
2018-12-20T21:15:53.447Z,101055.84
2018-12-20T21:18:22.384Z,101046.59
2018-12-20T21:20:51.327Z,101055.77
2018-12-20T21:23:20.290Z,101046.81
2018-12-20T21:25:49.164Z,101045.68
2018-12-20T21:28:18.119Z,101043.44
2018-12-20T21:30:47.110Z,101044.63
2018-12-20T21:33:16.115Z,101043.69
2018-12-20T21:35:44.953Z,101046.41
2018-12-20T21:38:14.458Z,101046.73
2018-12-20T21:40:43.722Z,101050.27
2018-12-20T21:43:12.836Z,101047.16
2018-12-20T21:45:41.707Z,101039.20
2018-12-20T21:48:10.597Z,101042.69
2018-12-20T21:50:39.471Z,101039.15
2018-12-20T21:53:08.421Z,101039.20
2018-12-20T21:55:37.308Z,101039.56
2018-12-20T21:58:06.331Z,101037.98
2018-12-20T22:00:35.726Z,101042.69
2018-12-20T22:03:04.609Z,101032.55
2018-12-20T22:05:33.556Z,101037.51
2018-12-20T22:08:02.518Z,101034.41
2018-12-20T22:10:31.406Z,101032.77
2018-12-20T22:13:00.448Z,101038.48
2018-12-20T22:15:29.495Z,101036.18
2018-12-20T22:17:58.858Z,101035.88
2018-12-20T22:20:27.707Z,101037.98
2018-12-20T22:22:56.950Z,101037.54
2018-12-20T22:25:25.848Z,101034.00
2018-12-20T22:27:54.858Z,101027.35
2018-12-20T22:30:23.802Z,101036.91
2018-12-20T22:32:52.905Z,101028.38
2018-12-20T22:35:21.956Z,101030.81
2018-12-20T22:37:50.921Z,101019.77
2018-12-20T22:40:19.789Z,101026.55
2018-12-20T22:42:50.238Z,101022.62
2018-12-20T22:45:20.024Z,101022.45
2018-12-20T22:47:48.938Z,101022.62
2018-12-20T22:50:17.824Z,101018.46
2018-12-20T22:52:46.775Z,101020.66
2018-12-20T22:55:16.522Z,101018.25
2018-12-20T22:57:45.810Z,101015.34
2018-12-20T23:00:15.840Z,101010.73
2018-12-20T23:02:44.820Z,101015.70
2018-12-20T23:05:13.783Z,101015.48
2018-12-20T23:07:44.675Z,101008.30
2018-12-20T23:10:15.467Z,101003.27
2018-12-20T23:12:44.343Z,101001.96
2018-12-20T23:15:13.283Z,100998.80
2018-12-20T23:17:42.202Z,100996.40
2018-12-20T23:20:11.185Z,100990.39
2018-12-20T23:22:40.502Z,100986.56
2018-12-20T23:25:09.450Z,100984.19
2018-12-20T23:27:38.724Z,100983.05
2018-12-20T23:30:08.741Z,100990.80
2018-12-20T23:32:37.799Z,100983.60
2018-12-20T23:35:06.882Z,100981.09
2018-12-20T23:37:36.181Z,100985.20
2018-12-20T23:40:05.326Z,100980.42
2018-12-20T23:42:34.333Z,100981.89
2018-12-20T23:45:03.442Z,100981.36
2018-12-20T23:47:32.878Z,100976.73
2018-12-20T23:50:01.881Z,100972.61
2018-12-20T23:52:30.845Z,100975.66
2018-12-20T23:55:00.054Z,100970.62
2018-12-20T23:57:29.041Z,100963.03
2018-12-20T23:59:57.902Z,100968.27
